Time;durP1;ratioP1;P1;durP2;ratioP2;P2;SDS_P1;SDS_P2;PMS_P1;PMS_P2;Temp;Humidity;BMP_temperature;BMP_pressure;BME280_temperature;BME280_humidity;BME280_pressure;Samples;Min_cycle;Max_cycle;Signal;HPM_P1;HPM_P2
2024/01/04 00:01:21;;;;;;;1.30;0.50;;;10.60;65.80;;;6.42;99.81;94444.69;5009523;28;20025;-48
2024/01/04 00:03:46;;;;;;;1.13;0.50;;;10.60;65.80;;;6.41;99.39;94438.63;5002367;28;20041;-48
2024/01/04 00:06:12;;;;;;;0.80;0.50;;;10.60;65.80;;;6.41;99.99;94449.19;5011843;28;20108;-56
2024/01/04 00:08:38;;;;;;;2.08;0.70;;;10.70;65.80;;;6.42;99.66;94445.47;5007083;28;20021;-49
2024/01/04 00:11:06;;;;;;;0.90;0.50;;;10.70;65.70;;;6.41;99.21;94446.56;5004389;28;20135;-51
2024/01/04 00:13:33;;;;;;;1.77;0.40;;;10.70;65.60;;;6.41;99.22;94443.13;5005482;28;20025;-48
2024/01/04 00:16:00;;;;;;;1.67;0.60;;;10.70;65.50;;;6.41;98.66;94441.25;5000892;28;20032;-54
2024/01/04 00:18:26;;;;;;;2.22;0.60;;;10.70;65.30;;;6.41;97.78;94448.41;5011734;28;20017;-48
2024/01/04 00:20:52;;;;;;;1.13;0.47;;;10.70;65.20;;;6.44;97.72;94453.97;5011363;28;20082;-54
2024/01/04 00:23:18;;;;;;;3.47;0.52;;;10.70;65.30;;;6.46;97.68;94451.84;5000707;28;20026;-49
2024/01/04 00:25:43;;;;;;;3.78;0.70;;;10.70;65.10;;;6.48;97.76;94456.84;5001402;28;20050;-53
2024/01/04 00:28:09;;;;;;;3.13;0.88;;;10.80;65.10;;;6.48;98.85;94464.78;4997469;28;20365;-54
2024/01/04 00:30:36;;;;;;;0.77;0.40;;;10.80;65.00;;;6.42;99.48;94461.34;5004037;28;20117;-51
2024/01/04 00:33:01;;;;;;;0.75;0.43;;;10.80;65.10;;;6.38;99.79;94465.59;4991475;28;20037;-51
2024/01/04 00:35:27;;;;;;;2.80;0.70;;;10.80;65.10;;;6.29;100.00;94469.03;5007061;28;20026;-51
2024/01/04 00:37:53;;;;;;;2.30;0.43;;;10.70;65.00;;;6.26;100.00;94483.56;4997948;28;20086;-49
2024/01/04 00:40:19;;;;;;;0.30;0.30;;;10.70;65.10;;;6.15;100.00;94469.56;5011031;28;20033;-50
2024/01/04 00:42:45;;;;;;;1.40;0.30;;;10.70;65.20;;;6.09;100.00;94486.47;5006867;28;20026;-52
2024/01/04 00:45:11;;;;;;;3.30;0.50;;;10.60;65.20;;;5.98;100.00;94472.44;4994386;28;20084;-55
2024/01/04 00:47:37;;;;;;;2.83;0.60;;;10.60;65.40;;;6.00;100.00;94483.56;5010155;28;20471;-53
2024/01/04 00:50:03;;;;;;;1.65;0.40;;;10.50;65.50;;;5.90;100.00;94464.22;5011222;28;20052;-55
2024/01/04 00:52:29;;;;;;;1.48;0.30;;;10.50;65.50;;;5.83;100.00;94461.84;5009689;28;20506;-56
2024/01/04 00:54:56;;;;;;;0.30;0.30;;;10.40;65.50;;;5.78;100.00;94469.75;5010900;28;20033;-52
2024/01/04 00:57:22;;;;;;;1.02;0.40;;;10.40;65.60;;;5.70;100.00;94459.66;5010773;28;20036;-52
2024/01/04 00:59:48;;;;;;;0.40;0.40;;;10.30;65.60;;;5.66;100.00;94471.81;4995735;28;20013;-50
2024/01/04 01:02:13;;;;;;;0.50;0.40;;;10.30;65.70;;;5.68;100.00;94469.72;5005724;28;20562;-51
2024/01/04 01:04:39;;;;;;;0.45;0.30;;;10.20;65.70;;;5.65;100.00;94484.25;5005231;28;20021;-53
2024/01/04 01:07:05;;;;;;;0.77;0.32;;;10.20;65.80;;;5.62;100.00;94490.03;5010591;28;20507;-54
2024/01/04 01:09:31;;;;;;;1.10;0.43;;;10.20;65.80;;;5.60;100.00;94494.78;5003326;28;20147;-55
2024/01/04 01:11:57;;;;;;;2.63;0.50;;;10.20;66.00;;;5.51;100.00;94499.78;5003157;28;20034;-55
2024/01/04 01:14:22;;;;;;;1.33;0.40;;;10.10;65.90;;;5.52;100.00;94501.38;4995274;28;20071;-50
2024/01/04 01:16:48;;;;;;;1.13;0.50;;;10.10;66.10;;;5.56;100.00;94512.22;5009713;28;20029;-54
2024/01/04 01:19:14;;;;;;;1.48;0.40;;;10.10;66.30;;;5.61;100.00;94527.28;5005730;28;20021;-56
2024/01/04 01:21:41;;;;;;;2.15;0.63;;;10.10;66.50;;;5.58;100.00;94528.63;4991535;28;20021;-55
2024/01/04 01:24:07;;;;;;;2.53;0.40;;;10.10;66.60;;;5.62;100.00;94534.16;5009155;28;20036;-53
2024/01/04 01:26:32;;;;;;;1.05;0.40;;;10.10;66.70;;;5.64;100.00;94538.16;5002033;28;20033;-53
2024/01/04 01:28:58;;;;;;;2.33;0.40;;;10.10;66.90;;;5.63;100.00;94531.25;5009088;28;20031;-52
2024/01/04 01:31:24;;;;;;;0.93;0.50;;;10.10;67.10;;;5.61;100.00;94530.75;5010295;28;20369;-51
2024/01/04 01:33:50;;;;;;;1.33;0.50;;;10.10;67.40;;;5.59;100.00;94524.13;4999684;28;20826;-50
2024/01/04 01:36:16;;;;;;;3.67;0.60;;;10.10;67.50;;;5.53;100.00;94523.28;4998688;28;20033;-53
2024/01/04 01:38:41;;;;;;;5.75;0.70;;;10.00;67.40;;;5.50;100.00;94515.88;5009800;28;20025;-51
2024/01/04 01:41:07;;;;;;;2.88;0.60;;;9.90;67.60;;;5.47;100.00;94519.84;5002935;28;20029;-53
2024/01/04 01:43:33;;;;;;;1.63;0.43;;;9.90;67.70;;;5.42;100.00;94522.47;4997127;28;20021;-50
2024/01/04 01:45:59;;;;;;;1.15;0.60;;;9.90;67.70;;;5.38;100.00;94525.88;5005395;28;20506;-51
2024/01/04 01:48:26;;;;;;;3.72;0.60;;;9.80;67.70;;;5.35;100.00;94527.16;5002807;28;20018;-50
2024/01/04 01:50:52;;;;;;;3.17;0.52;;;9.80;68.00;;;5.33;100.00;94530.09;5008441;28;20071;-54
2024/01/04 01:53:18;;;;;;;3.25;0.50;;;9.80;68.00;;;5.29;100.00;94534.28;4999264;28;20079;-54
2024/01/04 01:55:44;;;;;;;1.23;0.50;;;9.70;68.10;;;5.30;100.00;94521.88;4990516;28;20412;-53
2024/01/04 01:58:10;;;;;;;3.85;0.50;;;9.70;68.20;;;5.31;100.00;94534.03;4988318;28;20419;-51
2024/01/04 02:00:38;;;;;;;1.55;0.55;;;9.70;68.30;;;5.28;100.00;94542.47;4989347;28;20051;-51
2024/01/04 02:03:05;;;;;;;1.42;0.50;;;9.70;68.40;;;5.25;100.00;94556.97;4995638;28;20044;-52
2024/01/04 02:05:31;;;;;;;1.67;0.60;;;9.70;68.50;;;5.30;100.00;94567.56;5008655;28;20120;-50
2024/01/04 02:07:58;;;;;;;2.03;0.73;;;9.70;68.50;;;5.33;100.00;94555.72;4990936;28;20037;-50
2024/01/04 02:10:24;;;;;;;2.40;0.60;;;9.70;68.50;;;5.33;100.00;94550.41;5007633;28;20053;-51
2024/01/04 02:12:50;;;;;;;2.20;0.52;;;9.70;68.40;;;5.33;100.00;94545.94;5009735;28;20576;-51
2024/01/04 02:15:16;;;;;;;3.50;0.60;;;9.70;68.30;;;5.36;100.00;94563.13;5009745;28;20060;-51
2024/01/04 02:17:42;;;;;;;1.48;0.50;;;9.70;68.30;;;5.34;100.00;94573.91;5007997;28;20484;-51
2024/01/04 02:20:08;;;;;;;1.48;0.40;;;9.70;68.10;;;5.34;100.00;94571.28;4992126;28;20108;-50
2024/01/04 02:22:45;;;;;;;1.13;0.50;;;9.70;68.70;;;5.28;100.00;94567.03;5008337;28;20453;-50
2024/01/04 02:25:11;;;;;;;2.33;0.45;;;9.70;67.90;;;5.32;100.00;94564.66;5006846;28;20068;-50
2024/01/04 02:27:37;;;;;;;3.05;0.30;;;9.70;68.00;;;5.32;100.00;94568.09;4994713;28;20044;-50
2024/01/04 02:30:04;;;;;;;1.67;0.60;;;9.70;67.80;;;5.34;100.00;94567.84;5009637;28;20025;-50
2024/01/04 02:32:30;;;;;;;0.68;0.50;;;9.60;67.70;;;5.32;100.00;94568.09;5009177;28;20061;-51
2024/01/04 02:34:56;;;;;;;0.73;0.50;;;9.70;67.70;;;5.33;100.00;94559.13;5008115;28;20123;-50
2024/01/04 02:37:22;;;;;;;1.67;0.50;;;9.70;67.60;;;5.30;100.00;94567.56;5009219;28;20480;-50
2024/01/04 02:39:47;;;;;;;2.20;0.50;;;9.70;67.60;;;5.34;100.00;94562.56;5007924;28;20029;-52
2024/01/04 02:42:13;;;;;;;1.17;0.63;;;9.70;67.50;;;5.32;100.00;94564.66;5009388;28;20128;-54
2024/01/04 02:44:41;;;;;;;3.38;0.50;;;9.70;67.60;;;5.34;100.00;94581.84;4990120;28;20097;-53
2024/01/04 02:47:07;;;;;;;0.60;0.35;;;9.70;67.60;;;5.38;100.00;94576.06;5006523;28;20037;-56
2024/01/04 02:49:33;;;;;;;2.63;0.70;;;9.80;67.80;;;5.43;100.00;94579.53;5009025;28;20166;-56
2024/01/04 02:51:59;;;;;;;1.27;0.60;;;9.80;67.80;;;5.45;100.00;94587.16;5007260;28;20116;-54
2024/01/04 02:54:24;;;;;;;1.08;0.52;;;9.80;67.80;;;5.48;100.00;94586.66;4989828;28;20033;-55
2024/01/04 02:56:50;;;;;;;1.95;0.73;;;9.90;67.80;;;5.52;100.00;94579.84;5005912;28;20106;-55
2024/01/04 02:59:16;;;;;;;1.38;0.70;;;9.90;67.90;;;5.55;100.00;94571.41;4993505;28;20650;-53
2024/01/04 03:01:44;;;;;;;2.35;0.60;;;10.00;67.80;;;5.55;100.00;94587.25;4994521;28;20037;-55
2024/01/04 03:04:09;;;;;;;1.88;0.60;;;10.00;67.70;;;5.54;100.00;94575.84;5000720;28;20424;-56
2024/01/04 03:06:35;;;;;;;4.68;0.70;;;10.00;67.70;;;5.54;100.00;94580.34;5009195;28;20064;-55
2024/01/04 03:09:01;;;;;;;2.47;0.63;;;10.10;67.70;;;5.59;100.00;94582.25;5000766;28;20554;-54
2024/01/04 03:11:27;;;;;;;2.70;0.70;;;10.10;67.60;;;5.56;100.00;94576.41;4996180;28;20068;-53
2024/01/04 03:13:52;;;;;;;1.80;0.60;;;10.10;67.70;;;5.54;100.00;94575.84;5009144;28;20025;-50
2024/01/04 03:16:20;;;;;;;2.72;1.23;;;10.10;67.70;;;5.59;100.00;94574.31;5007882;28;20083;-51
2024/01/04 03:18:46;;;;;;;6.07;0.77;;;10.10;67.60;;;5.55;100.00;94584.59;5008807;28;20135;-51
2024/01/04 03:21:13;;;;;;;4.65;0.90;;;10.10;67.60;;;5.56;100.00;94572.97;4991518;28;20489;-51
2024/01/04 03:23:39;;;;;;;3.08;0.60;;;10.10;67.70;;;5.62;100.00;94571.94;5009475;28;20112;-55
2024/01/04 03:26:05;;;;;;;3.80;0.63;;;10.10;67.60;;;5.63;100.00;94591.22;5002092;28;20049;-54
2024/01/04 03:28:31;;;;;;;2.53;0.63;;;10.20;67.60;;;5.62;100.00;94573.81;5007923;28;20025;-52
2024/01/04 03:30:57;;;;;;;5.00;0.80;;;10.10;67.50;;;5.66;100.00;94572.22;5012006;28;20087;-51
2024/01/04 03:33:22;;;;;;;3.30;0.88;;;10.10;67.50;;;5.68;100.00;94580.69;5012554;28;20013;-55
2024/01/04 03:35:48;;;;;;;6.05;1.55;;;10.20;68.30;;;5.68;100.00;94597.34;5011346;28;20040;-56
2024/01/04 03:38:14;;;;;;;5.05;0.80;;;10.10;67.50;;;5.69;100.00;94587.56;5012008;28;20380;-53
2024/01/04 03:40:40;;;;;;;3.20;0.88;;;10.10;67.50;;;5.73;100.00;94604.47;5011416;28;20100;-50
2024/01/04 03:43:06;;;;;;;3.70;0.90;;;10.10;67.50;;;5.71;100.00;94601.31;5005447;28;20029;-53
2024/01/04 03:45:32;;;;;;;4.18;0.80;;;10.10;67.60;;;5.71;100.00;94607.41;4997150;28;20108;-52
2024/01/04 03:47:58;;;;;;;1.83;0.68;;;10.10;67.70;;;5.68;100.00;94621.13;5011398;28;20486;-50
2024/01/04 03:50:24;;;;;;;8.38;1.30;;;10.10;67.80;;;5.65;100.00;94628.78;5012109;28;20033;-51
2024/01/04 03:52:50;;;;;;;7.22;0.90;;;10.10;68.00;;;5.59;100.00;94629.78;5011378;28;20357;-51
2024/01/04 03:55:16;;;;;;;5.65;1.10;;;10.00;68.10;;;5.46;100.00;94626.56;5011924;28;20065;-50
2024/01/04 03:57:45;;;;;;;4.47;1.02;;;10.00;68.40;;;5.46;100.00;94641.59;5010545;28;20152;-51
2024/01/04 04:00:12;;;;;;;7.50;1.25;;;9.90;68.90;;;5.41;100.00;94655.56;5011633;28;20025;-51
2024/01/04 04:02:39;;;;;;;2.53;0.85;;;9.90;69.10;;;5.38;100.00;94647.34;5007034;28;20040;-50
2024/01/04 04:05:06;;;;;;;4.78;0.90;;;9.90;69.40;;;5.37;100.00;94657.13;5004227;28;20067;-51
2024/01/04 04:07:32;;;;;;;3.13;1.15;;;9.80;69.50;;;5.36;100.00;94660.81;5007535;28;20057;-51
2024/01/04 04:09:59;;;;;;;3.03;0.90;;;9.80;69.70;;;5.31;100.00;94666.84;5004099;28;20110;-50
2024/01/04 04:12:25;;;;;;;7.47;1.00;;;9.80;69.90;;;5.31;100.00;94666.06;5011703;28;20032;-53
2024/01/04 04:14:51;;;;;;;1.90;0.80;;;9.80;70.90;;;5.25;100.00;94673.16;5006581;28;20022;-51
2024/01/04 04:17:18;;;;;;;6.47;1.00;;;9.70;70.30;;;5.24;100.00;94681.34;5008085;28;20118;-52
2024/01/04 04:19:44;;;;;;;2.90;1.17;;;9.70;70.40;;;5.24;100.00;94676.06;5009183;28;20028;-54
2024/01/04 04:22:10;;;;;;;6.03;1.00;;;9.70;70.50;;;5.19;100.00;94687.34;5010698;28;20395;-53
2024/01/04 04:24:36;;;;;;;4.38;0.90;;;9.70;70.70;;;5.12;100.00;94689.41;5007898;28;20044;-54
2024/01/04 04:27:02;;;;;;;5.20;0.85;;;9.70;70.90;;;5.08;100.00;94683.06;4993161;28;20034;-53
2024/01/04 04:29:27;;;;;;;4.20;0.88;;;9.60;71.00;;;5.08;100.00;94681.22;5000057;28;20032;-53
2024/01/04 04:31:57;;;;;;;8.38;0.98;;;9.60;71.10;;;5.09;100.00;94679.38;5008285;28;20045;-51
2024/01/04 04:34:23;;;;;;;3.38;0.52;;;9.60;71.30;;;5.06;100.00;94693.06;5009963;28;20041;-51
2024/01/04 04:36:49;;;;;;;5.47;1.15;;;9.50;71.40;;;5.08;100.00;94685.69;5005372;28;20050;-50
2024/01/04 04:39:15;;;;;;;9.55;1.00;;;9.60;71.60;;;5.04;100.00;94697.78;5011192;28;20376;-51
2024/01/04 04:41:41;;;;;;;4.30;1.00;;;9.50;71.70;;;5.00;100.00;94705.41;5008981;28;20359;-54
2024/01/04 04:44:07;;;;;;;2.53;0.85;;;9.50;71.90;;;5.03;100.00;94706.75;5009105;28;20029;-50
2024/01/04 04:46:33;;;;;;;5.63;0.80;;;9.50;72.00;;;5.01;100.00;94708.84;4995851;28;20025;-50
2024/01/04 04:49:00;;;;;;;6.90;1.17;;;9.50;72.90;;;4.99;100.00;94703.84;5000713;28;20073;-51
2024/01/04 04:51:25;;;;;;;8.73;0.85;;;9.50;72.20;;;5.03;100.00;94709.41;5006515;28;20090;-50
2024/01/04 04:53:54;;;;;;;6.30;1.00;;;9.40;72.10;;;5.00;100.00;94712.53;5005502;28;20025;-50
2024/01/04 04:56:20;;;;;;;2.83;0.82;;;9.50;72.30;;;5.04;100.00;94722.34;5008137;28;20090;-52
2024/01/04 04:58:46;;;;;;;7.35;0.90;;;9.50;73.00;;;5.03;100.00;94725.25;5009085;28;20523;-49
2024/01/04 05:01:14;;;;;;;10.70;1.05;;;9.50;72.20;;;4.98;100.00;94726.00;4999637;28;20041;-51
2024/01/04 05:03:40;;;;;;;3.60;0.90;;;9.50;72.20;;;5.00;100.00;94721.25;5006027;28;20028;-52
2024/01/04 05:06:10;;;;;;;8.38;0.88;;;9.50;72.30;;;4.99;100.00;94716.25;5010716;28;20037;-55
2024/01/04 05:08:39;;;;;;;8.02;0.90;;;9.50;72.40;;;4.97;100.00;94713.84;5008949;28;20537;-54
2024/01/04 05:11:06;;;;;;;6.35;1.00;;;9.40;72.40;;;4.97;100.00;94719.09;4999711;28;20397;-54
2024/01/04 05:13:33;;;;;;;6.15;0.90;;;9.40;72.50;;;4.97;100.00;94713.03;4991162;28;20045;-55
2024/01/04 05:16:00;;;;;;;6.35;1.30;;;9.40;72.60;;;4.96;100.00;94706.97;4998732;28;20041;-50
2024/01/04 05:18:26;;;;;;;4.60;1.15;;;9.40;72.60;;;4.96;100.00;94714.09;5010284;28;20021;-55
2024/01/04 05:20:52;;;;;;;4.63;0.82;;;9.40;72.60;;;4.94;100.00;94708.25;4997429;28;20380;-55
2024/01/04 05:23:17;;;;;;;9.02;1.10;;;9.40;72.60;;;4.97;100.00;94724.38;5009783;28;20096;-52
2024/01/04 05:25:45;;;;;;;8.07;1.10;;;9.30;72.80;;;5.02;100.00;94728.94;5003026;28;20072;-50
2024/01/04 05:28:11;;;;;;;7.97;1.10;;;9.40;73.00;;;5.03;100.00;94741.06;5005881;28;20063;-55
2024/01/04 05:30:36;;;;;;;7.70;1.20;;;9.40;72.90;;;5.04;100.00;94755.84;5004972;28;20453;-54
2024/01/04 05:33:03;;;;;;;6.07;0.95;;;9.40;73.00;;;5.07;100.00;94753.50;5010568;28;20021;-51
2024/01/04 05:35:30;;;;;;;11.90;1.00;;;9.50;73.80;;;5.09;100.00;94748.00;5009445;28;20051;-50
2024/01/04 05:37:55;;;;;;;9.65;1.10;;;9.50;72.90;;;5.08;100.00;94765.69;5006778;28;20064;-50
2024/01/04 05:40:21;;;;;;;4.10;0.95;;;9.40;72.90;;;5.05;100.00;94766.19;5009033;28;20072;-50
2024/01/04 05:42:47;;;;;;;6.78;0.95;;;9.40;72.80;;;5.06;100.00;94764.34;5008405;28;20107;-52
2024/01/04 05:45:13;;;;;;;4.70;1.00;;;9.40;72.80;;;5.05;100.00;94754.84;5009575;28;20574;-55
2024/01/04 05:47:40;;;;;;;3.40;0.80;;;9.40;72.70;;;5.00;100.00;94762.69;4992564;28;20451;-52
2024/01/04 05:50:06;;;;;;;3.08;0.90;;;9.40;72.70;;;5.03;100.00;94760.34;4990546;28;20018;-50
2024/01/04 05:52:33;;;;;;;6.07;0.77;;;9.40;72.70;;;5.01;100.00;94766.91;4991902;28;20116;-51
2024/01/04 05:54:59;;;;;;;3.05;0.85;;;9.40;72.80;;;5.04;100.00;94772.50;5007356;28;20035;-53
2024/01/04 05:57:28;;;;;;;6.35;1.10;;;9.40;72.90;;;5.10;100.00;94771.50;5009705;28;20025;-56
2024/01/04 05:59:54;;;;;;;2.28;0.90;;;9.40;72.90;;;5.13;100.00;94780.75;5009247;28;20021;-54
2024/01/04 06:02:20;;;;;;;2.83;0.85;;;9.40;72.80;;;5.15;100.00;94775.25;5007944;28;20109;-53
2024/01/04 06:04:46;;;;;;;3.25;0.98;;;9.50;72.80;;;5.17;100.00;94775.78;5004911;28;20028;-50
2024/01/04 06:07:12;;;;;;;5.68;0.90;;;9.60;72.80;;;5.25;100.00;94786.69;5009439;28;20431;-54
2024/01/04 06:09:38;;;;;;;3.55;1.00;;;9.60;72.70;;;5.26;100.00;94790.91;5005450;28;20377;-54
2024/01/04 06:12:06;;;;;;;3.20;0.90;;;9.60;72.50;;;5.28;100.00;94788.84;5009833;28;20033;-53
2024/01/04 06:14:32;;;;;;;3.45;0.85;;;9.60;72.40;;;5.23;100.00;94804.66;5009546;28;20104;-52
2024/01/04 06:16:58;;;;;;;4.63;1.00;;;9.60;72.20;;;5.23;100.00;94809.94;4997683;28;20113;-50
2024/01/04 06:19:26;;;;;;;7.28;1.00;;;9.70;72.30;;;5.25;100.00;94813.09;5002952;28;20025;-50
2024/01/04 06:21:52;;;;;;;7.47;1.08;;;9.70;72.10;;;5.30;100.00;94815.81;5000251;28;20072;-51
2024/01/04 06:24:18;;;;;;;6.18;1.25;;;9.70;72.00;;;5.33;100.00;94811.88;5005348;28;20041;-52
2024/01/04 06:26:44;;;;;;;3.60;1.08;;;9.70;72.10;;;5.35;100.00;94815.03;5004977;28;20039;-54
2024/01/04 06:29:10;;;;;;;5.47;0.80;;;9.70;71.80;;;5.38;100.00;94811.09;4998738;28;20078;-51
2024/01/04 06:31:36;;;;;;;7.65;1.20;;;9.80;71.70;;;5.38;100.00;94825.09;4989756;28;20034;-52
2024/01/04 06:34:02;;;;;;;5.25;0.95;;;9.80;71.50;;;5.42;100.00;94820.94;5001731;28;20036;-51
2024/01/04 06:36:28;;;;;;;3.33;0.80;;;9.80;71.40;;;5.42;100.00;94823.56;5008262;28;20030;-50
2024/01/04 06:38:54;;;;;;;4.03;1.40;;;9.80;71.30;;;5.45;100.00;94824.91;4999428;28;20021;-54
2024/01/04 06:41:20;;;;;;;2.95;0.77;;;9.90;71.20;;;5.44;100.00;94837.31;5005391;28;20033;-52
2024/01/04 06:43:47;;;;;;;6.50;1.02;;;9.90;71.10;;;5.45;100.00;94832.81;4999702;28;20504;-51
2024/01/04 06:46:15;;;;;;;3.00;0.63;;;9.90;70.90;;;5.50;100.00;94832.88;5001207;28;20094;-51
2024/01/04 06:48:41;;;;;;;6.43;0.80;;;10.00;70.80;;;5.49;100.00;94837.38;5007184;28;20045;-53
2024/01/04 06:51:07;;;;;;;2.72;0.90;;;10.00;70.70;;;5.48;100.00;94841.03;5001901;28;20068;-51
2024/01/04 06:53:33;;;;;;;4.38;1.10;;;10.00;70.60;;;5.50;100.00;94841.59;5000434;28;20108;-51
2024/01/04 06:55:59;;;;;;;5.60;1.00;;;10.00;70.60;;;5.50;100.00;94843.44;5007214;28;20112;-52
2024/01/04 06:58:25;;;;;;;2.47;0.82;;;10.00;70.50;;;5.52;100.00;94836.06;5002951;28;20017;-50
2024/01/04 07:00:52;;;;;;;1.92;0.70;;;10.00;70.30;;;5.55;100.00;94827.66;5013304;28;20108;-52
2024/01/04 07:03:19;;;;;;;1.92;0.65;;;10.00;70.20;;;5.61;100.00;94833.75;4999240;28;20048;-57
2024/01/04 07:05:47;;;;;;;4.18;0.90;;;10.10;70.00;;;5.62;100.00;94833.50;5010492;28;20029;-51
2024/01/04 07:08:12;;;;;;;3.40;1.02;;;10.10;70.00;;;5.60;100.00;94829.53;5011319;28;20065;-50
2024/01/04 07:10:41;;;;;;;2.08;0.77;;;10.10;69.80;;;5.62;100.00;94828.22;5002482;28;20049;-53
2024/01/04 07:13:08;;;;;;;3.53;0.95;;;10.10;69.60;;;5.67;100.00;94852.06;5000241;28;20057;-51
2024/01/04 07:15:34;;;;;;;2.63;0.80;;;10.20;69.60;;;5.68;100.00;94847.56;5007178;28;20029;-51
2024/01/04 07:18:00;;;;;;;3.05;0.77;;;10.20;69.50;;;5.67;100.00;94861.81;5001782;28;20033;-51
2024/01/04 07:20:26;;;;;;;2.72;0.77;;;10.20;69.50;;;5.67;100.00;94867.91;5003841;28;20032;-52
2024/01/04 07:22:52;;;;;;;5.63;0.90;;;10.20;69.30;;;5.67;100.00;94870.56;5002089;28;20105;-50
2024/01/04 07:25:20;;;;;;;5.35;1.42;;;10.20;69.30;;;5.68;100.00;94876.63;5002104;28;20599;-54
2024/01/04 07:27:45;;;;;;;6.35;0.90;;;10.20;69.30;;;5.69;100.00;94886.94;5001756;28;20056;-55
2024/01/04 07:30:11;;;;;;;8.50;1.35;;;10.20;69.30;;;5.68;100.00;94885.34;4994000;28;20106;-55
2024/01/04 07:32:37;;;;;;;5.28;1.27;;;10.20;69.20;;;5.65;100.00;94883.22;5007068;28;20040;-53
2024/01/04 07:35:05;;;;;;;4.45;1.40;;;10.20;69.20;;;5.62;100.00;94883.72;4997442;28;20477;-54
2024/01/04 07:37:31;;;;;;;4.22;0.80;;;10.10;69.20;;;5.61;100.00;94886.59;4997501;28;20496;-54
2024/01/04 07:39:56;;;;;;;7.03;1.42;;;10.10;69.20;;;5.53;100.00;94874.66;5011669;28;20033;-52
2024/01/04 07:42:22;;;;;;;3.53;1.08;;;10.10;69.10;;;5.49;100.00;94878.84;5011264;28;20028;-51
2024/01/04 07:44:49;;;;;;;6.07;1.58;;;10.00;69.10;;;5.39;100.00;94879.53;4992841;28;20032;-50
2024/01/04 07:47:14;;;;;;;6.97;1.00;;;10.00;69.20;;;5.38;100.00;94888.50;5004792;28;20037;-56
2024/01/04 07:49:40;;;;;;;6.47;1.00;;;10.00;69.20;;;5.39;100.00;94898.03;5003248;28;20014;-52
2024/01/04 07:52:07;;;;;;;4.25;1.35;;;10.00;69.40;;;5.37;100.00;94889.53;4993003;28;20037;-50
2024/01/04 07:54:34;;;;;;;7.18;1.08;;;10.00;69.40;;;5.40;100.00;94885.63;4999591;28;20025;-54
2024/01/04 07:57:00;;;;;;;4.97;1.13;;;10.00;69.40;;;5.42;100.00;94897.53;5001265;28;20029;-51
2024/01/04 07:59:27;;;;;;;5.25;0.90;;;10.00;69.40;;;5.45;100.00;94902.31;5009767;28;20022;-51
2024/01/04 08:01:53;;;;;;;6.18;1.15;;;10.00;69.40;;;5.48;100.00;94895.72;4998194;28;20033;-51
2024/01/04 08:04:18;;;;;;;5.85;1.13;;;10.10;69.40;;;5.51;100.00;94898.66;4991412;28;20048;-55
2024/01/04 08:06:44;;;;;;;5.03;1.10;;;10.10;69.30;;;5.49;100.00;94899.97;5002318;28;20493;-56
2024/01/04 08:09:11;;;;;;;4.90;1.13;;;10.20;69.30;;;5.59;100.00;94901.91;5004742;28;20018;-53
2024/01/04 08:11:40;;;;;;;6.15;1.02;;;10.30;69.30;;;5.63;100.00;94903.78;5017227;28;20672;-54
2024/01/04 08:14:06;;;;;;;4.13;0.90;;;10.30;69.20;;;5.69;100.00;94915.22;4994080;28;20116;-56
2024/01/04 08:16:32;;;;;;;2.15;0.85;;;10.40;69.20;;;5.68;100.00;94905.72;5009664;28;20096;-53
2024/01/04 08:18:58;;;;;;;4.72;1.00;;;10.40;69.20;;;5.71;100.00;94913.94;5010814;28;20033;-56
2024/01/04 08:21:24;;;;;;;4.57;1.20;;;10.40;68.90;;;5.74;100.00;94920.56;5010363;28;20040;-54
2024/01/04 08:23:50;;;;;;;3.60;0.90;;;10.50;68.90;;;5.70;100.00;94922.91;5010108;28;20059;-54
2024/01/04 08:26:16;;;;;;;3.35;0.85;;;10.40;68.80;;;5.72;100.00;94920.81;5005712;28;20071;-56
2024/01/04 08:28:42;;;;;;;4.72;1.13;;;10.40;68.90;;;5.69;100.00;94921.28;5009669;28;20037;-55
2024/01/04 08:31:08;;;;;;;8.40;1.08;;;10.40;68.90;;;5.70;100.00;94930.84;5004413;28;20055;-52
2024/01/04 08:33:34;;;;;;;1.77;0.70;;;10.40;68.90;;;5.67;100.00;94933.16;5009851;28;20025;-53
2024/01/04 08:36:00;;;;;;;4.55;0.63;;;10.40;68.80;;;5.70;100.00;94943.22;5006571;28;20075;-50
2024/01/04 08:38:26;;;;;;;4.55;1.02;;;10.30;68.80;;;5.67;100.00;94939.25;5011261;28;20053;-52
2024/01/04 08:40:51;;;;;;;5.20;0.88;;;10.20;68.90;;;5.59;100.00;94933.63;5003808;28;20554;-56
2024/01/04 08:43:17;;;;;;;1.67;0.70;;;10.20;69.10;;;5.55;100.00;94936.75;5005832;28;20025;-53
2024/01/04 08:45:43;;;;;;;4.07;1.00;;;10.10;69.20;;;5.55;100.00;94936.75;5007601;28;20025;-48
2024/01/04 08:48:09;;;;;;;3.70;1.05;;;10.00;69.40;;;5.54;100.00;94927.22;5010012;28;20065;-50
2024/01/04 08:50:35;;;;;;;4.78;1.33;;;10.10;69.70;;;5.53;100.00;94932.75;5009078;28;20025;-53
2024/01/04 08:53:01;;;;;;;2.35;0.80;;;10.00;69.80;;;5.52;100.00;94941.75;5003035;28;20036;-53
2024/01/04 08:55:27;;;;;;;3.70;0.75;;;10.00;70.00;;;5.48;100.00;94936.13;4999986;28;20052;-52
2024/01/04 08:57:52;;;;;;;2.80;0.85;;;10.00;70.10;;;5.50;100.00;94944.63;4992884;28;20722;-56
2024/01/04 09:00:19;;;;;;;1.75;0.80;;;10.10;70.40;;;5.56;100.00;94956.03;5003563;28;20116;-54
2024/01/04 09:02:46;;;;;;;5.35;1.00;;;10.10;70.40;;;5.55;100.00;94962.38;4999253;28;20025;-56
2024/01/04 09:05:12;;;;;;;3.10;1.02;;;10.10;70.50;;;5.61;100.00;94955.28;4993576;28;20045;-53
2024/01/04 09:07:38;;;;;;;3.83;0.85;;;10.20;70.60;;;5.72;100.00;94957.78;4997617;28;20094;-57
2024/01/04 09:10:05;;;;;;;7.75;1.20;;;10.40;71.30;;;5.76;100.00;94961.53;4997034;28;20029;-58
2024/01/04 09:12:32;;;;;;;2.00;0.70;;;10.50;70.40;;;5.84;100.00;94962.16;5000712;28;20031;-54
2024/01/04 09:14:58;;;;;;;5.05;0.82;;;10.70;70.30;;;5.89;100.00;94968.28;5006133;28;20043;-53
2024/01/04 09:17:25;;;;;;;2.50;0.77;;;10.80;70.10;;;5.90;100.00;94964.59;4998495;28;20025;-52
2024/01/04 09:19:52;;;;;;;1.92;0.77;;;10.80;69.90;;;5.98;100.00;94973.94;4997411;28;20021;-49
2024/01/04 09:22:18;;;;;;;2.10;0.73;;;10.90;69.60;;;6.00;100.00;94966.56;5000284;28;20072;-56
2024/01/04 09:24:44;;;;;;;3.10;0.90;;;11.00;69.50;;;6.08;100.00;94968.75;5006767;28;20427;-55
2024/01/04 09:27:12;;;;;;;3.10;1.10;;;11.00;69.20;;;6.18;100.00;94975.97;5000762;28;20041;-60
2024/01/04 09:29:38;;;;;;;8.55;1.65;;;11.20;69.10;;;6.18;100.00;94982.06;4996359;28;20072;-54
2024/01/04 09:32:05;;;;;;;6.22;1.60;;;11.20;69.10;;;6.19;100.00;94975.72;4999263;28;20041;-49
2024/01/04 09:34:31;;;;;;;2.20;0.90;;;11.20;68.80;;;6.13;100.00;94979.38;5001604;28;20567;-49
2024/01/04 09:36:57;;;;;;;3.60;1.05;;;11.20;68.60;;;6.20;100.00;94979.16;5002818;28;20116;-55
2024/01/04 09:39:22;;;;;;;3.17;1.15;;;11.20;68.40;;;6.17;100.00;94987.59;4994647;28;20056;-56
2024/01/04 09:41:50;;;;;;;6.05;1.55;;;11.10;68.40;;;6.10;100.00;94979.88;4989652;28;20033;-49
2024/01/04 09:44:16;;;;;;;3.65;0.82;;;11.10;68.30;;;6.04;100.00;94996.72;4992504;28;20515;-51
2024/01/04 09:46:43;;;;;;;6.10;1.10;;;10.90;68.10;;;5.96;100.00;94998.00;4991108;28;20044;-50
2024/01/04 09:49:11;;;;;;;4.65;0.90;;;10.80;68.30;;;5.81;100.00;94992.50;5000406;28;20425;-51
2024/01/04 09:51:41;;;;;;;7.63;1.55;;;10.70;68.40;;;5.83;100.00;94990.44;4997315;28;20033;-51
2024/01/04 09:54:11;;;;;;;5.40;1.45;;;10.70;68.70;;;5.80;100.00;94989.06;4993617;28;20032;-52
2024/01/04 09:56:46;;;;;;;2.67;0.77;;;10.70;68.80;;;5.67;100.00;94992.13;4998043;28;20042;-54
2024/01/04 09:59:13;;;;;;;4.20;1.00;;;10.60;69.00;;;5.68;100.00;94988.41;4996842;28;21759;-54
2024/01/04 10:01:40;;;;;;;4.25;0.93;;;10.60;69.20;;;5.71;100.00;94981.84;4996838;28;20037;-53
2024/01/04 10:04:07;;;;;;;2.72;1.00;;;10.60;69.40;;;5.78;100.00;94987.72;4997400;28;20021;-54
2024/01/04 10:06:41;;;;;;;3.30;1.17;;;10.70;69.60;;;5.81;100.00;94984.59;5005681;28;20123;-52
2024/01/04 10:10:00;;;;;;;3.83;1.05;;;10.90;69.80;;;6.04;100.00;94994.09;4993047;28;20021;-55
2024/01/04 10:12:32;;;;;;;7.07;1.05;;;11.30;69.80;;;6.30;100.00;94997.78;5018179;28;20036;-52
2024/01/04 10:14:59;;;;;;;3.67;1.08;;;11.60;69.70;;;6.51;100.00;94988.16;4997860;28;20156;-51
2024/01/04 10:17:25;;;;;;;3.58;0.80;;;11.90;69.70;;;6.48;100.00;95000.03;4994077;28;20524;-52
2024/01/04 10:19:51;;;;;;;4.78;1.30;;;11.90;69.00;;;6.58;100.00;94996.69;4994562;28;20030;-50